Time;durP1;ratioP1;P1;durP2;ratioP2;P2;SDS_P1;SDS_P2;PMS_P1;PMS_P2;Temp;Humidity;BMP_temperature;BMP_pressure;BME280_temperature;BME280_humidity;BME280_pressure;Samples;Min_cycle;Max_cycle;Signal;HPM_P1;HPM_P2
2023/12/23 00:07:17;;;;;;;19.98;14.18;;;;;;;23.47;61.11;99676.78;20957460;28;20233;-54
2023/12/23 00:17:19;;;;;;;16.58;12.10;;;;;;;23.33;61.30;99687.13;20967018;28;20294;-60
2023/12/23 00:27:22;;;;;;;14.75;10.27;;;;;;;23.35;61.51;99705.41;20958560;28;20521;-59
2023/12/23 00:37:23;;;;;;;11.43;8.45;;;;;;;23.30;61.18;99711.41;20969560;28;20591;-53
2023/12/23 00:47:26;;;;;;;10.35;7.22;;;;;;;23.20;61.35;99714.91;20960152;28;20230;-53
2023/12/23 00:57:28;;;;;;;9.85;7.25;;;;;;;23.14;61.93;99710.75;20971699;28;20610;-54
2023/12/23 01:07:31;;;;;;;81.78;54.00;;;;;;;23.08;61.81;99707.44;20930341;28;20660;-52
2023/12/23 01:17:33;;;;;;;72.10;49.58;;;;;;;23.19;60.97;99710.44;20982420;28;20211;-58
2023/12/23 01:27:36;;;;;;;61.22;41.25;;;;;;;23.17;60.62;99710.00;20906948;28;20230;-55
2023/12/23 01:37:38;;;;;;;48.58;35.03;;;;;;;23.14;59.96;99716.44;20980246;28;20219;-55
2023/12/23 01:47:42;;;;;;;123.05;83.93;;;;;;;23.11;60.10;99720.03;20953692;28;20795;-54
2023/12/23 01:57:44;;;;;;;137.40;97.63;;;;;;;23.07;60.34;99722.00;20968953;28;20578;-53
2023/12/23 02:07:49;;;;;;;124.78;88.90;;;;;;;22.97;60.72;99717.81;20956830;28;20222;-52
2023/12/23 02:17:59;;;;;;;103.50;75.18;;;;;;;22.97;60.50;99712.13;20949455;28;20636;-55
2023/12/23 02:28:06;;;;;;;81.15;59.38;;;;;;;22.98;60.54;99705.22;20950234;28;20245;-53
2023/12/23 02:38:10;;;;;;;78.10;55.58;;;;;;;23.02;60.04;99685.44;20954569;28;20298;-55
2023/12/23 02:48:13;;;;;;;64.00;46.35;;;;;;;22.93;60.96;99648.00;20943109;28;20231;-59
2023/12/23 02:58:14;;;;;;;63.70;43.65;;;;;;;22.83;60.88;99640.97;20936419;28;20204;-57
2023/12/23 03:08:17;;;;;;;54.63;39.47;;;;;;;22.76;60.99;99610.44;20958951;28;20237;-50
2023/12/23 03:18:19;;;;;;;47.72;35.08;;;;;;;22.74;60.52;99592.97;20971478;28;20309;-60
2023/12/23 03:28:23;;;;;;;42.45;32.72;;;;;;;22.72;60.57;99592.50;20974871;28;20218;-51
2023/12/23 03:38:26;;;;;;;37.83;28.15;;;;;;;22.67;60.69;99573.00;20981190;28;20314;-61
2023/12/23 03:48:29;;;;;;;36.05;26.05;;;;;;;22.79;60.26;99541.59;20988618;28;20588;-50
2023/12/23 03:58:31;;;;;;;31.67;23.67;;;;;;;22.79;60.45;99510.41;20988442;28;20293;-60
2023/12/23 04:08:34;;;;;;;29.88;21.80;;;;;;;22.74;60.89;99493.69;20964115;28;20322;-50
2023/12/23 04:18:35;;;;;;;27.25;19.58;;;;;;;22.72;61.05;99470.53;20973496;28;20224;-51
2023/12/23 04:28:38;;;;;;;33.88;21.77;;;;;;;22.70;60.88;99436.09;20976460;28;20223;-59
2023/12/23 04:38:40;;;;;;;30.30;19.10;;;;;;;22.68;60.79;99429.19;20978214;28;20207;-59
2023/12/23 04:48:43;;;;;;;28.63;18.42;;;;;;;22.71;60.97;99436.91;20949803;28;20615;-59
2023/12/23 04:58:45;;;;;;;24.92;15.50;;;;;;;22.67;60.66;99444.56;20962822;28;20210;-50
2023/12/23 05:08:48;;;;;;;22.25;14.93;;;;;;;22.65;61.05;99399.56;20948537;28;20228;-59
2023/12/23 05:18:49;;;;;;;18.80;12.40;;;;;;;22.62;60.92;99423.00;20953489;28;20235;-59
2023/12/23 05:28:52;;;;;;;21.17;13.52;;;;;;;22.75;60.41;99387.53;20958586;28;20233;-57
2023/12/23 05:38:54;;;;;;;19.10;11.77;;;;;;;22.64;60.30;99397.09;20963095;28;20698;-54
2023/12/23 05:48:57;;;;;;;16.40;11.40;;;;;;;22.61;60.58;99384.50;20960243;28;20227;-59
2023/12/23 05:58:59;;;;;;;17.77;9.95;;;;;;;22.56;60.62;99396.22;20944800;28;20514;-59
2023/12/23 06:09:03;;;;;;;13.30;9.43;;;;;;;22.62;60.45;99411.66;20952570;28;20230;-62
2023/12/23 06:19:04;;;;;;;12.90;9.18;;;;;;;22.53;60.99;99407.50;20965767;28;20231;-60
2023/12/23 06:29:07;;;;;;;14.23;7.95;;;;;;;22.48;61.05;99388.78;20956216;28;20229;-54
2023/12/23 06:39:09;;;;;;;10.30;6.22;;;;;;;22.54;60.21;99375.94;20968723;28;20211;-50
2023/12/23 06:49:12;;;;;;;9.77;5.97;;;;;;;22.53;60.59;99381.97;20965935;28;20237;-53
2023/12/23 06:59:14;;;;;;;8.13;5.63;;;;;;;22.46;60.04;99352.31;20960267;28;20698;-60
2023/12/23 07:09:17;;;;;;;7.47;4.78;;;;;;;22.40;60.80;99351.03;20969026;28;20317;-59
2023/12/23 07:19:19;;;;;;;6.00;4.40;;;;;;;22.33;60.87;99378.50;20956963;28;20235;-53
2023/12/23 07:29:22;;;;;;;5.40;4.25;;;;;;;22.39;61.22;99374.09;20975054;28;20246;-56
2023/12/23 07:39:24;;;;;;;87.13;59.97;;;;;;;22.42;61.72;99371.31;20978860;28;20211;-54
2023/12/23 07:49:27;;;;;;;114.70;81.72;;;;;;;22.48;62.18;99387.97;20926315;28;20535;-59
2023/12/23 07:59:29;;;;;;;95.78;68.13;;;;;;;22.71;61.58;99386.69;20952432;28;20204;-57
2023/12/23 08:09:32;;;;;;;219.40;144.30;;;;;;;22.89;61.39;99391.75;20933967;28;20311;-59
2023/12/23 08:19:34;;;;;;;184.27;121.18;;;;;;;23.04;60.59;99393.56;20978209;28;20349;-60
2023/12/23 08:29:37;;;;;;;131.63;87.85;;;;;;;23.13;60.01;99400.53;20984903;28;20226;-49
2023/12/23 08:39:38;;;;;;;60.55;40.72;;;;;;;21.16;58.37;99427.50;20977858;28;20518;-51
2023/12/23 08:49:42;;;;;;;5.00;2.78;;;;;;;18.69;58.73;99432.38;20941726;28;20315;-53
2023/12/23 08:59:44;;;;;;;10.85;3.72;;;;;;;19.47;55.62;99431.72;20969601;28;20203;-52
2023/12/23 09:09:47;;;;;;;20.42;11.52;;;;;;;19.47;55.44;99445.81;20972572;28;20501;-47
2023/12/23 09:19:49;;;;;;;7.15;2.67;;;;;;;19.62;52.68;99450.66;20955774;28;20227;-52
2023/12/23 09:29:53;;;;;;;5.32;1.90;;;;;;;19.54;54.73;99454.50;20931974;28;20227;-55
2023/12/23 09:39:54;;;;;;;6.00;1.50;;;;;;;19.31;54.53;99457.09;20968986;28;20223;-52
2023/12/23 09:49:58;;;;;;;6.97;3.75;;;;;;;19.00;55.28;99454.19;20968359;28;20225;-54
2023/12/23 09:59:59;;;;;;;8.40;2.33;;;;;;;19.20;54.21;99470.91;20955028;28;20199;-51
2023/12/23 10:10:03;;;;;;;2.85;1.10;;;;;;;19.23;53.91;99472.97;20963706;28;20231;-51
2023/12/23 10:20:06;;;;;;;26.92;14.55;;;;;;;19.09;53.31;99486.69;20959010;28;20223;-53
2023/12/23 10:30:11;;;;;;;5.03;2.28;;;;;;;18.86;53.90;99488.44;20877990;28;20235;-52
2023/12/23 10:40:17;;;;;;;13.10;6.85;;;;;;;18.82;56.40;99464.97;20892733;28;20225;-54
2023/12/23 10:50:20;;;;;;;7.78;2.83;;;;;;;18.57;57.80;99484.72;20851497;28;20248;-59
2023/12/23 11:00:22;;;;;;;33.67;20.90;;;;;;;19.40;54.74;99479.47;20874901;28;20224;-62
2023/12/23 11:10:25;;;;;;;22.27;13.88;;;;;;;21.04;52.14;99496.34;20882549;28;20251;-54
2023/12/23 11:20:47;;;;;;;20.83;12.85;;;;;;;21.81;51.84;99467.91;20789264;28;20253;-51
2023/12/23 11:30:51;;;;;;;17.17;11.15;;;;;;;22.27;51.84;99496.22;20922230;28;20262;-50
2023/12/23 11:40:53;;;;;;;16.98;10.93;;;;;;;22.49;50.82;99503.84;20944503;28;20326;-53
2023/12/23 11:50:57;;;;;;;91.47;59.55;;;;;;;22.53;50.40;99501.88;20990310;28;20514;-53
2023/12/23 12:00:59;;;;;;;104.38;68.72;;;;;;;22.74;51.67;99499.34;20953503;28;20732;-52
2023/12/23 12:11:03;;;;;;;147.85;100.78;;;;;;;22.77;51.52;99498.63;20986188;28;20227;-50
2023/12/23 12:21:05;;;;;;;169.15;116.65;;;;;;;22.86;51.96;99500.34;20866137;28;20290;-52
2023/12/23 12:31:14;;;;;;;140.55;98.75;;;;;;;22.97;52.17;99495.66;20811861;28;20228;-49
2023/12/23 12:41:16;;;;;;;208.35;135.65;;;;;;;22.95;52.49;99498.03;20893094;28;20212;-49
2023/12/23 12:51:19;;;;;;;171.00;117.97;;;;;;;23.05;52.21;99509.53;20854971;28;20228;-53
2023/12/23 13:01:22;;;;;;;134.90;90.00;;;;;;;23.10;52.29;99537.56;20887153;28;20200;-45
2023/12/23 13:11:26;;;;;;;102.68;70.05;;;;;;;23.19;51.93;99531.59;20886035;28;20227;-53
2023/12/23 13:21:28;;;;;;;161.15;112.35;;;;;;;23.26;51.47;99545.88;20898076;28;20216;-46
2023/12/23 13:31:31;;;;;;;170.43;119.88;;;;;;;23.30;51.64;99560.13;20825154;28;20227;-49
2023/12/23 13:41:32;;;;;;;133.00;93.18;;;;;;;23.30;51.86;99560.94;20901618;28;20203;-49
2023/12/23 13:51:36;;;;;;;104.65;70.82;;;;;;;23.33;52.02;99553.66;20889806;28;20589;-53
2023/12/23 14:01:38;;;;;;;81.07;57.15;;;;;;;23.33;51.89;99582.06;20885147;28;20212;-47
2023/12/23 14:11:41;;;;;;;215.55;136.35;;;;;;;23.38;51.56;99602.41;20884421;28;20231;-45
2023/12/23 14:21:43;;;;;;;172.57;109.30;;;;;;;23.42;52.10;99597.59;20864975;28;20223;-49
2023/12/23 14:31:48;;;;;;;123.05;80.30;;;;;;;23.22;52.38;99601.81;20896060;28;20242;-53
2023/12/23 14:41:51;;;;;;;109.47;70.55;;;;;;;23.21;52.39;99620.03;20804853;28;20213;-47
2023/12/23 14:51:54;;;;;;;146.88;95.95;;;;;;;23.61;51.77;99618.56;20802999;28;20230;-56
2023/12/23 15:01:56;;;;;;;99.57;68.15;;;;;;;23.78;51.09;99649.19;20788901;28;20538;-54
2023/12/23 15:11:59;;;;;;;86.40;56.70;;;;;;;23.81;51.29;99642.72;20806012;28;20224;-52
2023/12/23 15:22:01;;;;;;;83.75;50.80;;;;;;;23.83;53.07;99651.69;20781844;28;20232;-55
2023/12/23 15:32:04;;;;;;;71.43;46.80;;;;;;;23.83;53.85;99663.06;20807908;28;20623;-53
2023/12/23 15:42:08;;;;;;;63.60;39.97;;;;;;;23.77;54.49;99658.91;20812824;28;20211;-53
2023/12/23 15:52:12;;;;;;;50.13;32.28;;;;;;;23.74;54.64;99666.22;20825951;28;20224;-52
2023/12/23 16:02:14;;;;;;;47.97;32.92;;;;;;;23.67;54.66;99688.00;20809530;28;20300;-53
2023/12/23 16:12:17;;;;;;;50.47;39.92;;;;;;;23.63;54.48;99690.00;20821483;28;20501;-51
2023/12/23 16:22:18;;;;;;;48.50;36.40;;;;;;;23.57;55.13;99700.88;20820338;28;20350;-53
2023/12/23 16:32:22;;;;;;;99.57;70.43;;;;;;;23.48;55.07;99721.03;20817243;28;20224;-53
2023/12/23 16:42:23;;;;;;;92.63;67.75;;;;;;;23.43;55.02;99724.19;20800403;28;20909;-52
2023/12/23 16:52:27;;;;;;;79.40;58.40;;;;;;;23.38;54.86;99710.31;20811534;28;20312;-53
2023/12/23 17:02:28;;;;;;;65.68;49.75;;;;;;;23.34;54.50;99720.00;20812809;28;20212;-51
2023/12/23 17:12:31;;;;;;;59.03;41.67;;;;;;;23.24;54.63;99701.56;20825581;28;20220;-52
2023/12/23 17:22:33;;;;;;;45.67;33.60;;;;;;;23.20;54.58;99708.41;20809479;28;20355;-52
2023/12/23 17:32:36;;;;;;;40.50;29.50;;;;;;;23.16;54.93;99708.34;20817013;28;20256;-51
2023/12/23 17:42:38;;;;;;;29.90;23.48;;;;;;;23.12;55.08;99724.50;20806671;28;20228;-54
2023/12/23 17:52:41;;;;;;;28.38;21.10;;;;;;;23.06;54.54;99732.53;20779352;28;20319;-51
2023/12/23 18:02:43;;;;;;;22.80;18.42;;;;;;;23.06;54.47;99738.22;20804387;28;20200;-52
2023/12/23 18:12:46;;;;;;;17.15;13.93;;;;;;;23.01;54.86;99723.50;20814943;28;20315;-52
2023/12/23 18:22:48;;;;;;;16.88;12.85;;;;;;;23.01;55.35;99740.53;20812643;28;20235;-51
2023/12/23 18:32:51;;;;;;;14.27;11.05;;;;;;;22.97;55.06;99717.81;20815580;28;20236;-51
2023/12/23 18:42:53;;;;;;;14.40;10.60;;;;;;;22.94;55.70;99734.75;20808470;28;20215;-48
2023/12/23 18:52:56;;;;;;;11.85;8.98;;;;;;;22.93;55.25;99727.44;20801081;28;20292;-54
2023/12/23 19:02:58;;;;;;;9.45;7.72;;;;;;;22.88;55.87;99739.94;20816880;28;20529;-49
2023/12/23 19:13:03;;;;;;;8.60;7.30;;;;;;;22.90;55.65;99745.22;20816881;28;20309;-52
2023/12/23 19:23:07;;;;;;;8.20;6.50;;;;;;;22.88;55.79;99754.13;20806585;28;20717;-51
2023/12/23 19:33:10;;;;;;;7.30;6.07;;;;;;;22.88;55.85;99741.94;20812967;28;20280;-49
2023/12/23 19:43:12;;;;;;;8.25;5.70;;;;;;;22.82;56.54;99754.81;20807126;28;20601;-48
2023/12/23 19:53:15;;;;;;;58.50;37.67;;;;;;;22.84;56.63;99741.09;20824774;28;20523;-50
2023/12/23 20:03:16;;;;;;;74.38;49.72;;;;;;;22.80;56.89;99739.00;20803876;28;20236;-48
2023/12/23 20:13:19;;;;;;;88.32;59.47;;;;;;;22.84;56.65;99736.22;20824705;28;20227;-54
2023/12/23 20:23:21;;;;;;;212.38;144.98;;;;;;;22.85;56.41;99748.41;20818827;28;20649;-45
2023/12/23 20:33:24;;;;;;;230.40;157.98;;;;;;;22.93;56.55;99752.97;20812574;28;20255;-45
2023/12/23 20:43:26;;;;;;;198.48;136.40;;;;;;;23.04;56.34;99742.63;20810995;28;20497;-46
2023/12/23 20:53:29;;;;;;;300.48;221.45;;;;;;;23.07;56.50;99733.34;20814250;28;20228;-45
2023/12/23 21:03:31;;;;;;;259.20;185.88;;;;;;;23.10;56.37;99741.13;20819805;28;20227;-48
2023/12/23 21:13:34;;;;;;;218.68;153.10;;;;;;;23.08;56.20;99720.81;20801564;28;20228;-47
2023/12/23 21:23:35;;;;;;;181.23;128.32;;;;;;;23.04;56.58;99722.75;20811479;28;20236;-45
2023/12/23 21:33:38;;;;;;;249.30;178.63;;;;;;;23.07;56.29;99719.16;20802605;28;20224;-45
2023/12/23 21:43:40;;;;;;;253.02;184.15;;;;;;;23.15;56.56;99695.34;20804679;28;20204;-48
2023/12/23 21:53:43;;;;;;;216.68;153.68;;;;;;;23.18;56.28;99711.63;20801240;28;20263;-46
2023/12/23 22:03:45;;;;;;;173.90;127.53;;;;;;;23.27;55.98;99697.97;20789817;28;20295;-46
2023/12/23 22:13:49;;;;;;;150.50;110.45;;;;;;;23.36;55.72;99723.28;20796127;28;20319;-45
2023/12/23 22:23:51;;;;;;;134.57;98.20;;;;;;;23.34;55.68;99720.81;20784790;28;20227;-43
2023/12/23 22:33:54;;;;;;;112.93;83.43;;;;;;;23.41;55.12;99708.72;20796011;28;20220;-44
2023/12/23 22:43:55;;;;;;;102.65;75.75;;;;;;;23.37;55.39;99688.78;20822046;28;20287;-48
2023/12/23 22:53:58;;;;;;;86.43;62.70;;;;;;;23.40;55.35;99685.19;20828691;28;20235;-44
2023/12/23 23:04:00;;;;;;;77.82;55.88;;;;;;;23.41;55.38;99672.63;20828974;28;20208;-47
2023/12/23 23:14:04;;;;;;;73.85;54.00;;;;;;;23.45;55.02;99659.31;20797411;28;20620;-45
2023/12/23 23:24:06;;;;;;;64.07;46.20;;;;;;;23.47;55.08;99668.25;20786839;28;20283;-47
2023/12/23 23:34:09;;;;;;;62.33;46.28;;;;;;;23.48;55.24;99672.75;20800428;28;20307;-45
2023/12/23 23:44:11;;;;;;;55.78;40.28;;;;;;;23.49;55.07;99684.91;20775751;28;20208;-48
2023/12/23 23:54:14;;;;;;;53.40;40.53;;;;;;;23.50;55.06;99669.47;20791137;28;20672;-52
